Aérodrome :
LOGIN :

S'inscrire | Disclaimer

   EN    FR    IT 

 










Légende :    VFR   VFR Marginal   IFR   IFR Intensif   IFR Très Intensif
Visi : 
Plafond : 
>= 8 km
>= 3000ft
5 à 8 km
1000 à 3000 ft
1500m à 5 km
500 à 1000 ft
800 à 1500m
200 à 500 ft
< 800m
< 200 ft
Symboles :   Orages  Brouillard  Fortes neiges  Fortes précipitations  Vent > 20 kt
SIGMETs :   Divers  Orages  Givrage  Turbulence  Onde Orograph.  Cendres Volcan.







- Altitude de l'aérodrome : 1910 ft
- Code IATA : RDZ
- Voir les cartes d'approche


LFCR - Rodez

DERNIER METAR :
  • 181600Z AUTO 35008KT 310V020 9999 FEW033 24/15 Q1022 NOSIG

METARs EXPIRÉS :
  • 181530Z AUTO 32009KT 290V010 9999 FEW034 24/15 Q1022 NOSIG
  • 181500Z AUTO 34007KT 290V040 9999 SCT034 SCT068 25/15 Q1022 NOSIG
  • 181430Z AUTO 31007KT 250V020 CAVOK 24/15 Q1022 NOSIG
  • 181400Z AUTO 30009KT 270V350 9999 BKN029 BKN054 23/16 Q1023 NOSIG
  • 181330Z AUTO 32010KT 280V360 9999 SCT027 OVC050 22/15 Q1023 NOSIG

TAF TAF LFCR
Valide du 18 à 12h jusqu'au 19 à 12h UTC


181100Z 1812/1912 34008KT 9999 BKN020
BECMG 1812/1814 SCT040
Pas de NOTAMs connus pour ce terrain.



MET'MAP, la Météo Aéronautique d'un coup d'oeil ! - Copyright ORBIFLY Décembre 2007 - Disclaimer

ORBIFLY MET'MAP TEAM :

Programmation & Développement : Alexandra Zaïnal
Conception & Développement : Baudouin d'Aumeries
Co-Programmation & Développement : Marc-Olivier Méhu
Soutien technique & logistique : Manuel Goepfert

Contact : metmap@orbifly.com




SOURCES & CREDITS :

   NOAA